Houston, Texas
Traffic Map
Current Weather Conditions
Houston, Texas
Scattered Clouds
Scattered Clouds
24°
Feels Like: 24°
Wind Chill: 24° Ceiling: Unl
Heat Index: 24° Visibility: 10mi
Dew Point: 22° Wind: 6mph
Humidity: 87% Direction: 130° (SE)
Pressure: 30.08in Gusts: 0mph
Raw Report DataKIAH 280353Z 13005KT 10SM SCT250 24/22 A3008 RMK AO2 SLP184 T02390217
Traffic Incident Summary
Active as of:
Severity:
Category:
InformationThere was an issue retrieving the traffic information for this location. Please try a different location or try again shortly.
Advertisements
Track Severe Weather on mobile